航空気象通報

ウインドサーファーのための航空気象通報による風予報です。

1/31-2/1の航空気象通報

2007年01月31日 22時01分32秒 | TAF
羽田空港
TAF RJTT 310849Z 311812 32008KT 9999 FEW030
BECMG 0003 23014KT
TEMPO 0306 23020G30KT
BECMG 0609 27008KT
日本時間1日03-09時:320度から8ノットの風
09-12時:風が変化
12-15時:230度から14ノットの風
但し、12-15時:一時、230度から20ノット、突風30ノット
15-18時:風が変化
18-21時:270度から8ノットの風


那覇空港
ROAH 310840Z 311812 36010KT 9999 FEW030
BECMG 0609 35020KT
日本時間1日03-15時:360度から10ノットの風
15-18時:風が変化
18-21時:350度から20ノットの風


マウイのカフルイ空港
PHOG 311133Z 311212 20020G30KT P6SM SCT030 BKN040
TEMPO 1216 -SHRA SCT020 BKN030
FM1900 20026G35KT P6SM VCSH SCT030 BKN045
ハワイ時間31日02-09時:200度から20ノット、突風30ノット
、一時
10時-1日02時:200度から26ノット、突風35ノット


サイパン空港
PGSN 311120Z 311212 07010KT P6SM SCT025
マリアナ時間31日22時-1日22時:070度から10ノットの風


グアム空港
PGUM 311120Z 311212 08010KT P6SM SCT025
マリアナ時間31日22時-1日22時:080度から10ノットの風

コメント

1/30-31の航空気象通報

2007年01月30日 22時00分59秒 | TAF
羽田空港
TAF RJTT 300850Z 301812 35005KT 9999 FEW030 SCT040
BECMG 0003 09006KT
BECMG 0609 34008KT
日本時間31日03-09時:350度から5ノットの風
09-12時:風が変化
12-15時:090度から6ノットの風
15-18時:風が変化
18-21時:340度から8ノットの風


那覇空港
ROAH 300841Z 301812 03008KT 9999 FEW040
日本時間31日03-21時:030度から8ノットの風


マウイのカフルイ空港
PHOG 301140Z 301212 20020G27KT P6SM SCT030 BKN050
FM2000 20024G30KT P6SM SCT025 SCT045
ハワイ時間30日02-10時:200度から20ノット、突風27ノット

10時-31日02時:200度から24ノット、突風30ノット


サイパン空港
PGSN 301120Z 301212 08013KT P6SM VCSH SCT015 SCT050
マリアナ時間30日22時-31日22時:080度から13ノットの風


グアム空港
PGUM 301120Z 301212 09010KT P6SM VCSH SCT015 SCT025 SCT050
TEMPO 1214 5SM -SHRA BR SCT008 BKN020 BKN040
マリアナ時間30日22時-31日22時:090度から10ノットの風

30日22-00時:一時
コメント

1/29-30日の航空気象通報

2007年01月29日 21時59分43秒 | TAF
羽田空港
TAF RJTT 290843Z 291812 34008KT 9999 FEW030 SCT050
BECMG 0306 08008KT
日本時間30日03-12時:340度から8ノットの風
12-15時:風が変化
15-21時:080度から8ノットの風


那覇空港
ROAH 290841Z 291812 03008KT 9999 FEW030
日本時間30日03-21時:030度から8ノットの風


マウイのカフルイ空港
PHOG 291120Z 291212 20015KT P6SM BKN050
FM2100 20020G27KT P6SM BKN050
FM0600 20015KT P6SM BKN050
ハワイ時間29日02-11時:200度から15ノットの風
11-20時:200度から20ノット、突風27ノット
20時-30日02時:200度から15ノットの風


サイパン空港
PGSN 291132Z 291212 09010KT P6SM VCSH SCT018 SCT040 BKN300
TEMPO 1418 5SM -SHRA BKN018 BKN030
マリアナ時間29日22時-30日22時:090度から10ノットの風

30日00-04時:一時

グアム空港
PGUM 291132Z 291212 09010KT P6SM VCSH SCT015 SCT050 BKN300
TEMPO 1418 5SM -SHRA SCT015 BKN018 BKN030
マリアナ時間29日22時-30日22時:090度から10ノットの風

30日00-04時:一時
コメント

1/28-29の航空気象通報

2007年01月28日 21時15分30秒 | TAF
羽田空港
TAF RJTT 280847Z 281812 36010KT 8000 FEW008 SCT010 BKN020
TEMPO 2103 4000 RA BR FEW005 BKN008 BKN015
日本時間29日03-21時:360度から10ノットの風

06-12時:一時

那覇空港
ROAH 280849Z 281812 01015KT 9999 FEW035 SCT045
日本時間29日03-21時:010度から15ノットの風


マウイのカフルイ空港
PHOG 281132Z 281212 19010KT P6SM BKN040
FM2000 21015KT P6SM BKN050
FM0600 21015G22KT P6SM BKN050
ハワイ時間28日02-10時:190度から10ノットの風
10-20時:210度から15ノットの風
20時-29日02時:210度から15ノット、突風22ノット


サイパン空港
PGSN 281120Z 281212 10010KT P6SM VCSH SCT018 SCT040
マリアナ時間28日22時-29日22時:100度から10ノットの風


グアム空港
PGUM 281120Z 281212 08011KT P6SM VCSH SCT020 SCT100
TEMPO 1418 -SHRA BKN018 BKN040 OVC100
マリアナ時間28日22時-29日22時:080度から11ノットの風

29日00-04時:一時
コメント

1/27-28の航空気象通報

2007年01月27日 21時17分08秒 | TAF
羽田空港
TAF RJTT 270842Z 271812 02008KT 9999 FEW030 SCT050
日本時間28日03-21時:020度から8ノットの風


那覇空港
ROAH 270844Z 271812 36014KT 9999 FEW025 SCT045
日本時間28日03-21時:360度から14ノットの風


マウイのカフルイ空港
PHOG 271134Z 271212 VRB05KT P6SM FEW025 FEW040
FM2000 21013KT P6SM FEW030 SCT045
ハワイ時間27日02-10時:風向不定5ノットの風
10時-28日02時:210度から13ノットの風


サイパン空港
PGSN 271121Z 271212 08017KT P6SM VCSH SCT020 BKN120
マリアナ時間27日22時-28日22時:080度から17ノットの風


グアム空港
PGUM 271121Z 271212 08011G20KT P6SM VCSH SCT020 SCT040 BKN120
マリアナ時間27日22時-28日22時:080度から11ノット、突風20ノット

コメント